NCAR-RAP Real-Time Weather Data

Output produced by METARs form (14 October 2019  22:33 UTC)
found at http://weather.rap.ucar.edu/surface/
 
KSYR 142154Z 26008KT 10SM BKN047 BKN060 OVC085 10/04 A3003 RMK AO2 SLP168 T01000039
KSYR 142054Z 28008KT 10SM OVC039 10/04 A3002 RMK AO2 RAE39 SLP162 P0000 60000 T01000039 53018
KSYR 141954Z 28011KT 10SM -RA SCT041 OVC055 11/04 A3000 RMK AO2 RAB42 CIG 042 NW SLP155 P0000 T01060039
KSYR 141854Z 29012KT 10SM BKN040 OVC070 12/04 A2998 RMK AO2 SLP148 T01170044
KSYR 141754Z 30010KT 10SM FEW036 BKN046 OVC095 14/04 A2996 RMK AO2 SLP144 OVC V BKN T01390044 10150 20117 51006
KSYR 141654Z 26011KT 10SM FEW038 BKN050 OVC090 13/04 A2996 RMK AO2 SLP143 T01280039
KSYR 141554Z 27009KT 10SM BKN034 BKN100 14/06 A2995 RMK AO2 SLP139 BKN100 V OVC T01390061
KSYR 141454Z 27012KT 10SM FEW040 FEW090 BKN110 14/05 A2995 RMK AO2 SLP137 T01440050 53016
KSYR 141354Z 24012KT 10SM BKN100 BKN120 15/05 A2993 RMK AO2 SLP133 T01500050
KSYR 141254Z 21005KT 10SM BKN150 14/06 A2991 RMK AO2 SLP125 T01390056
KSYR 141154Z 20006KT 10SM BKN150 12/06 A2990 RMK AO2 SLP122 T01170056 10128 20106 53007
KSYR 141054Z 19010KT 10SM OVC160 12/06 A2988 RMK AO2 SLP116 OVC V BKN T01220056
KSYR 140954Z 18006KT 10SM OVC180 12/06 A2987 RMK AO2 SLP112 T01170061
KSYR 140854Z 17006KT 10SM BKN170 OVC200 11/06 A2988 RMK AO2 SLP114 BKN V OVC T01060056 55008
KSYR 140754Z 14003KT 10SM BKN170 OVC200 11/06 A2987 RMK AO2 SLP113 OVC V BKN T01110056
KSYR 140654Z 15004KT 10SM SCT190 11/05 A2989 RMK AO2 SLP116 T01110050
KSYR 140554Z 19008KT 10SM FEW150 FEW250 12/05 A2990 RMK AO2 SLP122 T01170050 10150 20117 58003
KSYR 140454Z 19009KT 10SM FEW250 13/04 A2991 RMK AO2 SLP124 T01280044 401890033
KSYR 140354Z 19011KT 10SM FEW200 FEW250 14/04 A2991 RMK AO2 SLP125 T01390039
KSYR 140254Z 18013G20KT 10SM FEW250 14/03 A2991 RMK AO2 SLP126 T01390033 56005
KSYR 140154Z 18014G21KT 10SM FEW250 15/03 A2991 RMK AO2 SLP126 T01500033
KSYR 140054Z 16008KT 10SM FEW250 13/01 A2992 RMK AO2 SLP130 T01280011
KSYR 132354Z 17009KT 10SM FEW250 14/M01 A2992 RMK AO2 SLP132 T01441006 10189 20128 55000
KSYR 132254Z 14005KT 10SM FEW180 FEW250 14/01 A2991 RMK AO2 SLP127 T01390006
KSYR 132154Z 15008KT 10SM FEW180 SCT250 17/01 A2992 RMK AO2 SLP128 T01720011
KSYR 132054Z 16009KT 10SM SCT250 18/01 A2993 RMK AO2 SLP131 T01830011 56023
KSYR 131954Z 17010KT 10SM FEW180 SCT250 19/02 A2994 RMK AO2 SLP137 T01890017
KSYR 131854Z 18006KT 10SM FEW180 BKN250 18/03 A2996 RMK AO2 SLP144 T01830028
KSYR 131754Z 11009KT 10SM FEW180 SCT250 17/02 A2999 RMK AO2 SLP154 T01720022 10172 20044 56027
KSYR 131654Z 11011KT 10SM FEW180 16/02 A3002 RMK AO2 SLP162 T01560022
KSYR 131554Z 14008KT 10SM FEW180 14/03 A3005 RMK AO2 SLP174 T01440033
KSYR 131454Z 11007KT 10SM FEW180 12/05 A3008 RMK AO2 SLP182 T01220050 58007
KSYR 131354Z 15005KT 10SM FEW180 10/06 A3009 RMK AO2 SLP188 T01000056
KSYR 131254Z 15003KT 10SM FEW180 07/05 A3010 RMK AO2 SLP193 T00720050
KSYR 131154Z 12004KT 9SM BCFG FEW180 04/03 A3010 RMK AO2 SLP190 70010 T00440033 10089 20033 50006
KSYR 131054Z 12003KT 9SM BCFG FEW180 05/04 A3010 RMK AO2 SLP191 T00500039
KSYR 130954Z 00000KT 5SM R28/2000V2400FT BR FEW002 04/04 A3009 RMK AO2 SLP187 BCFG S T00440039
KSYR 130933Z 00000KT 5SM R28/1800V3000FT BR FEW002 05/04 A3009 RMK AO2 VIS 1 NW BCFG NW T00500039
KSYR 130927Z 00000KT 3/4SM R28/1600V3500FT BR SCT002 05/04 A3008 RMK AO2 T00500039
KSYR 130854Z 00000KT 1/2SM R28/2000V2800FT BR VV002 06/04 A3008 RMK AO2 SLP184 VIS SE 1/4 T00560044 56000
KSYR 130839Z 00000KT 1SM R28/1800V3500FT BR BKN002 06/04 A3008 RMK AO2 VIS SE 1/2 T00560044
KSYR 130819Z 00000KT 1SM R28/1600V3500FT BR SCT002 SCT045 06/04 A3008 RMK AO2 VIS 1V2 T00560044
KSYR 130804Z 00000KT 2SM R28/1600V4500FT BR SCT002 BKN045 06/05 A3008 RMK AO2 T00610050
KSYR 130754Z 00000KT 3SM R28/2800VP6000FT BR FEW004 BKN044 06/05 A3008 RMK AO2 SLP185 VIS 1 NW T00610050
KSYR 130747Z 00000KT 4SM BR FEW004 BKN044 07/06 A3008 RMK AO2 VIS 1 NW T00670056
KSYR 130654Z 00000KT 7SM R28/6000VP6000FT BCFG BKN040 07/06 A3007 RMK AO2 SLP182 T00720061
KSYR 130554Z 00000KT 10SM OVC041 09/07 A3008 RMK AO2 SLP183 T00890072 10106 20067 53004
KSYR 130454Z 26003KT 10SM OVC041 09/07 A3007 RMK AO2 SLP181 T00940067 401390067
KSYR 130354Z 25003KT 10SM BKN038 OVC047 09/07 A3007 RMK AO2 SLP179 T00940067
KSYR 130254Z 24004KT 10SM BKN039 OVC050 08/07 A3007 RMK AO2 SLP179 T00830067 51014
KSYR 130154Z 00000KT 3SM R28/4000VP6000FT BR SCT040 08/07 A3006 RMK AO2 VIS 3/4 NW SLP176 T00780067
KSYR 130054Z 26003KT 4SM BCFG SCT050 08/07 A3004 RMK AO2 VIS 1/2 NW SLP171 T00830072
KSYR 122354Z 24003KT 10SM SCT050 11/09 A3003 RMK AO2 SLP166 60003 T01060089 10139 20106 51015
KSYR 122254Z 33003KT 10SM OVC035 11/10 A3001 RMK AO2 CIG 008 NW SLP161 T01110100
KSYR 122245Z 33004KT 10SM FEW009 OVC035 12/10 A3001 RMK AO2 CIG 008 NW T01170100